Time;durP1;ratioP1;P1;durP2;ratioP2;P2;SDS_P1;SDS_P2;PMS_P1;PMS_P2;Temp;Humidity;BMP_temperature;BMP_pressure;BME280_temperature;BME280_humidity;BME280_pressure;Samples;Min_cycle;Max_cycle;Signal;HPM_P1;HPM_P2
2023/01/27 00:00:22;;;;;;;11.17;3.27;;;6.70;20.50;;;;;;5074486;28;20215;-67
2023/01/27 00:02:49;;;;;;;8.37;2.40;;;6.70;22.30;;;;;;5074475;28;20559;-68
2023/01/27 00:05:15;;;;;;;10.07;2.93;;;6.70;23.00;;;;;;5074320;28;20664;-68
2023/01/27 00:07:45;;;;;;;9.00;2.40;;;6.70;20.20;;;;;;5074522;28;20180;-68
2023/01/27 00:10:14;;;;;;;6.63;2.10;;;6.70;20.20;;;;;;5056031;28;20172;-68
2023/01/27 00:15:25;;;;;;;9.10;2.20;;;6.70;17.50;;;;;;5074341;28;20179;-67
2023/01/27 00:17:50;;;;;;;11.07;2.77;;;6.70;18.00;;;;;;5074065;28;20263;-67
2023/01/27 00:25:49;;;;;;;8.93;2.27;;;6.60;24.30;;;;;;5073727;28;20215;-67
2023/01/27 00:28:22;;;;;;;7.80;2.43;;;6.60;27.30;;;;;;5073805;28;20191;-67
2023/01/27 00:30:51;;;;;;;10.63;2.53;;;6.60;29.30;;;;;;5056009;28;20172;-67
2023/01/27 00:33:26;;;;;;;12.23;2.30;;;6.60;29.30;;;;;;5073731;28;20180;-68
2023/01/27 00:36:06;;;;;;;10.33;2.47;;;6.70;29.40;;;;;;5073886;28;20397;-68
2023/01/27 00:38:34;;;;;;;9.73;2.40;;;6.70;34.10;;;;;;5073705;28;20173;-67
2023/01/27 00:41:18;;;;;;;11.03;2.73;;;6.70;29.50;;;;;;5073249;28;20706;-68
2023/01/27 00:43:45;;;;;;;9.97;2.60;;;6.70;28.90;;;;;;5073628;28;20172;-67
2023/01/27 00:46:11;;;;;;;9.17;2.27;;;6.70;29.20;;;;;;5073614;28;20672;-66
2023/01/27 00:48:37;;;;;;;10.40;2.70;;;6.70;31.20;;;;;;5073422;28;20183;-68
2023/01/27 00:51:03;;;;;;;11.47;2.73;;;6.70;30.30;;;;;;5073700;28;20187;-67
2023/01/27 00:53:29;;;;;;;14.50;2.53;;;6.70;30.40;;;;;;5073063;28;20224;-67
2023/01/27 00:55:56;;;;;;;9.20;2.60;;;6.70;32.80;;;;;;5073548;28;20218;-66
2023/01/27 00:58:26;;;;;;;10.10;2.03;;;6.60;37.20;;;;;;5073310;28;20173;-68
2023/01/27 01:00:59;;;;;;;14.87;2.50;;;6.70;40.20;;;;;;5073716;28;20168;-66
2023/01/27 01:03:26;;;;;;;12.13;2.57;;;6.60;39.90;;;;;;5073635;28;20191;-66
2023/01/27 01:05:52;;;;;;;10.00;2.80;;;6.60;41.20;;;;;;5073378;28;20316;-66
2023/01/27 01:08:18;;;;;;;10.23;2.70;;;6.70;42.70;;;;;;5073039;28;20682;-67
2023/01/27 01:10:44;;;;;;;13.60;3.20;;;6.70;44.70;;;;;;5073357;28;20204;-66
2023/01/27 01:13:10;;;;;;;8.20;2.53;;;6.70;44.40;;;;;;5073517;28;20306;-67
2023/01/27 01:15:40;;;;;;;9.97;2.57;;;6.70;37.00;;;;;;5073284;28;20180;-67
2023/01/27 01:18:08;;;;;;;10.00;2.30;;;6.60;38.90;;;;;;5073815;28;20186;-66
2023/01/27 01:20:39;;;;;;;14.50;2.20;;;6.50;41.80;;;;;;5073702;28;20640;-71
2023/01/27 01:23:05;;;;;;;10.73;2.60;;;6.50;45.50;;;;;;5073311;28;20164;-68
2023/01/27 01:25:32;;;;;;;9.53;2.70;;;6.50;46.90;;;;;;5073691;28;20215;-68
2023/01/27 01:27:58;;;;;;;8.70;2.53;;;6.50;41.40;;;;;;5073740;28;20169;-65
2023/01/27 01:30:26;;;;;;;9.27;2.30;;;6.50;45.20;;;;;;5073162;28;20168;-67
2023/01/27 01:32:52;;;;;;;13.73;3.03;;;6.40;48.10;;;;;;5073213;28;20256;-68
2023/01/27 01:35:19;;;;;;;10.57;2.50;;;6.40;48.10;;;;;;5073080;28;20172;-67
2023/01/27 01:37:44;;;;;;;8.17;2.10;;;6.50;46.30;;;;;;5072732;28;20177;-68
2023/01/27 01:40:13;;;;;;;13.40;2.33;;;6.50;45.00;;;;;;5072725;28;20556;-67
2023/01/27 01:42:55;;;;;;;10.27;2.63;;;6.40;44.50;;;;;;5076898;28;20179;-67
2023/01/27 01:45:38;;;;;;;10.10;2.00;;;6.50;46.40;;;;;;5077085;28;20204;-67
2023/01/27 01:48:19;;;;;;;13.17;2.53;;;6.40;45.50;;;;;;5077019;28;20183;-66
2023/01/27 01:50:53;;;;;;;9.97;2.53;;;6.30;48.60;;;;;;5077284;28;20526;-66
2023/01/27 01:53:26;;;;;;;8.60;2.10;;;6.20;47.10;;;;;;5076434;28;20227;-67
2023/01/27 01:55:52;;;;;;;8.33;2.30;;;6.20;40.50;;;;;;5077007;28;20655;-67
2023/01/27 01:58:19;;;;;;;4.67;2.20;;;6.20;39.40;;;;;;5076897;28;20222;-69
2023/01/27 02:00:46;;;;;;;8.40;2.50;;;6.20;43.00;;;;;;5076932;28;20163;-67
2023/01/27 02:03:12;;;;;;;10.07;2.77;;;6.20;45.30;;;;;;5077012;28;20172;-67
2023/01/27 02:05:42;;;;;;;9.03;3.20;;;6.20;47.70;;;;;;5076768;28;20208;-66
2023/01/27 02:08:14;;;;;;;10.47;2.30;;;6.10;51.30;;;;;;5076741;28;20192;-66
2023/01/27 02:10:40;;;;;;;10.63;2.97;;;6.20;52.20;;;;;;5076798;28;20172;-67
2023/01/27 02:13:05;;;;;;;14.60;2.97;;;6.10;49.10;;;;;;5058658;28;20176;-66
2023/01/27 02:15:31;;;;;;;8.80;2.57;;;6.20;53.10;;;;;;5076338;28;20179;-65
2023/01/27 02:18:00;;;;;;;8.07;2.30;;;6.10;54.10;;;;;;5076244;28;20273;-66
2023/01/27 02:20:36;;;;;;;7.37;2.13;;;6.10;56.80;;;;;;5076265;28;20176;-68
2023/01/27 02:23:17;;;;;;;10.00;2.50;;;6.10;58.40;;;;;;5058428;28;20221;-66
2023/01/27 02:25:55;;;;;;;10.13;2.50;;;6.00;62.10;;;;;;5076262;28;20208;-66
2023/01/27 02:28:21;;;;;;;9.83;2.93;;;6.10;65.90;;;;;;5076316;28;20164;-66
2023/01/27 02:30:46;;;;;;;9.67;2.83;;;6.10;64.80;;;;;;5076236;28;20522;-67
2023/01/27 02:33:14;;;;;;;13.73;3.33;;;6.00;68.60;;;;;;5076234;28;20172;-67
2023/01/27 02:36:01;;;;;;;11.23;2.83;;;6.00;70.40;;;;;;5075842;28;20770;-67
2023/01/27 02:38:31;;;;;;;5.27;3.00;;;6.00;73.60;;;;;;5075954;28;20176;-67
2023/01/27 02:41:06;;;;;;;10.80;3.10;;;6.00;69.60;;;;;;5075991;28;20333;-67
2023/01/27 02:43:31;;;;;;;8.13;2.93;;;6.00;75.50;;;;;;5076328;28;20172;-67
2023/01/27 02:45:57;;;;;;;7.93;3.17;;;5.90;78.60;;;;;;5075977;28;20632;-68
2023/01/27 02:48:23;;;;;;;4.63;2.40;;;5.90;76.10;;;;;;5075794;28;20498;-65
2023/01/27 02:50:48;;;;;;;10.37;2.70;;;5.80;61.00;;;;;;5075534;28;20568;-67
2023/01/27 02:53:14;;;;;;;9.07;3.30;;;5.90;66.50;;;;;;5075451;28;20250;-67
2023/01/27 02:55:40;;;;;;;8.33;2.77;;;5.90;62.50;;;;;;5075937;28;20168;-67
2023/01/27 02:58:05;;;;;;;10.80;3.13;;;5.80;63.70;;;;;;5075778;28;20578;-66
2023/01/27 03:00:31;;;;;;;10.77;3.17;;;5.80;67.40;;;;;;5057872;28;20176;-67
2023/01/27 03:02:56;;;;;;;12.20;3.57;;;5.80;69.50;;;;;;5075810;28;20218;-66
2023/01/27 03:05:22;;;;;;;6.53;3.57;;;5.90;70.80;;;;;;5075293;28;20204;-66
2023/01/27 03:07:48;;;;;;;13.40;4.10;;;5.90;69.30;;;;;;5075839;28;20179;-65
2023/01/27 03:10:13;;;;;;;13.27;3.93;;;5.80;74.00;;;;;;5075502;28;20535;-66
2023/01/27 03:12:39;;;;;;;10.20;3.90;;;5.90;77.20;;;;;;5075414;28;20203;-67
2023/01/27 03:20:33;;;;;;;8.77;3.40;;;5.90;77.80;;;;;;5075182;28;20176;-66
2023/01/27 03:22:59;;;;;;;14.97;3.50;;;5.90;77.40;;;;;;5075142;28;20176;-67
2023/01/27 03:25:24;;;;;;;12.70;3.53;;;5.90;74.60;;;;;;5075409;28;20216;-66
2023/01/27 03:27:50;;;;;;;9.93;3.40;;;5.90;77.20;;;;;;5075311;28;20168;-67
2023/01/27 03:30:16;;;;;;;10.53;3.50;;;5.90;78.00;;;;;;5075003;28;20620;-67
2023/01/27 03:32:47;;;;;;;10.40;3.50;;;5.90;81.70;;;;;;5075020;28;20680;-66
2023/01/27 03:35:15;;;;;;;11.03;3.03;;;5.80;82.40;;;;;;5075156;28;20306;-66
2023/01/27 03:48:39;;;;;;;10.87;3.60;;;5.60;89.30;;;;;;5074481;28;20226;-66
2023/01/27 03:51:06;;;;;;;11.77;3.43;;;5.70;90.00;;;;;;5074755;28;20181;-65
2023/01/27 03:53:33;;;;;;;10.60;4.00;;;5.70;87.60;;;;;;5074489;28;20219;-66
2023/01/27 03:55:59;;;;;;;12.80;4.47;;;5.60;90.10;;;;;;5074724;28;20644;-66
2023/01/27 03:58:33;;;;;;;11.10;4.50;;;5.70;83.30;;;;;;5074518;28;20184;-67
2023/01/27 04:01:14;;;;;;;11.13;4.40;;;5.60;84.30;;;;;;5074592;28;20194;-65
2023/01/27 04:09:12;;;;;;;17.33;8.60;;;5.50;78.60;;;;;;5074638;28;20207;-66
2023/01/27 04:11:53;;;;;;;15.50;8.03;;;5.50;69.40;;;;;;5074144;28;20164;-66
2023/01/27 04:14:49;;;;;;;14.70;7.53;;;5.50;75.60;;;;;;5074154;28;20160;-66
2023/01/27 04:17:17;;;;;;;9.73;6.50;;;5.50;76.60;;;;;;4973162;28;20183;-66
2023/01/27 04:19:43;;;;;;;10.77;5.37;;;5.50;79.30;;;;;;4972980;28;20175;-66
2023/01/27 04:22:14;;;;;;;10.23;5.80;;;5.50;77.30;;;;;;4973266;28;20285;-66
2023/01/27 04:24:40;;;;;;;16.97;6.97;;;5.50;70.30;;;;;;4973215;28;20218;-66
2023/01/27 04:27:08;;;;;;;11.57;6.17;;;5.40;68.70;;;;;;4973326;28;20271;-66
2023/01/27 04:29:36;;;;;;;9.83;6.03;;;5.40;67.20;;;;;;4973174;28;20168;-66
2023/01/27 04:32:04;;;;;;;11.43;5.00;;;5.30;72.40;;;;;;4972922;28;20216;-66
2023/01/27 04:34:31;;;;;;;9.90;5.63;;;5.30;70.90;;;;;;4973162;28;20180;-66
2023/01/27 04:36:57;;;;;;;12.00;6.40;;;5.30;74.30;;;;;;4973035;28;20204;-66
2023/01/27 04:39:24;;;;;;;10.83;5.67;;;5.30;76.10;;;;;;4972721;28;20803;-66
2023/01/27 04:41:50;;;;;;;9.70;5.67;;;5.30;71.70;;;;;;4973006;28;20200;-66
2023/01/27 04:44:19;;;;;;;9.27;5.13;;;5.30;73.00;;;;;;4972974;28;20212;-66
2023/01/27 04:46:44;;;;;;;10.47;5.50;;;5.30;69.10;;;;;;4972562;28;20231;-66
2023/01/27 04:49:10;;;;;;;15.57;6.13;;;5.20;71.60;;;;;;4972856;28;20179;-66
2023/01/27 04:51:36;;;;;;;10.10;4.60;;;5.20;75.90;;;;;;4974155;28;20223;-66
2023/01/27 04:54:05;;;;;;;10.07;4.60;;;5.20;73.00;;;;;;5046621;28;20202;-66
2023/01/27 04:56:33;;;;;;;9.23;4.13;;;5.20;77.50;;;;;;5073502;28;20200;-66
2023/01/27 04:59:01;;;;;;;7.67;4.97;;;5.10;72.80;;;;;;5073521;28;20204;-66
2023/01/27 05:01:28;;;;;;;8.47;4.03;;;5.00;74.60;;;;;;5072971;28;20234;-66
2023/01/27 05:03:54;;;;;;;9.10;5.13;;;5.00;68.60;;;;;;5073413;28;20164;-66
2023/01/27 05:06:20;;;;;;;10.60;4.60;;;4.90;62.40;;;;;;5073134;28;20213;-66
2023/01/27 05:08:46;;;;;;;8.90;4.30;;;4.90;58.40;;;;;;5073115;28;20554;-67
2023/01/27 05:11:12;;;;;;;7.77;5.20;;;4.90;60.10;;;;;;5073307;28;20195;-67
2023/01/27 05:13:39;;;;;;;13.23;6.93;;;4.90;64.10;;;;;;5073477;28;20160;-66
2023/01/27 05:16:31;;;;;;;6.47;3.90;;;4.90;63.80;;;;;;5071809;28;20183;-66
2023/01/27 05:18:57;;;;;;;11.87;5.47;;;4.90;65.00;;;;;;5069218;28;20180;-66
2023/01/27 05:21:26;;;;;;;8.87;4.73;;;4.90;63.90;;;;;;5073251;28;20184;-66
2023/01/27 05:23:52;;;;;;;8.13;4.60;;;4.90;61.20;;;;;;5073252;28;20176;-66
2023/01/27 05:26:21;;;;;;;14.40;5.53;;;4.80;60.20;;;;;;5073088;28;20602;-66
2023/01/27 05:28:49;;;;;;;6.63;4.33;;;4.80;65.00;;;;;;5072754;28;20199;-66
2023/01/27 05:31:17;;;;;;;6.90;4.33;;;4.80;62.60;;;;;;5073008;28;20268;-66
2023/01/27 05:33:43;;;;;;;8.83;4.80;;;4.80;69.60;;;;;;5073157;28;20181;-65
2023/01/27 05:36:11;;;;;;;5.37;4.47;;;4.70;71.50;;;;;;5073192;28;20222;-67
2023/01/27 05:38:37;;;;;;;11.23;5.27;;;4.70;76.10;;;;;;5073939;28;20172;-68
2023/01/27 05:41:05;;;;;;;15.70;5.63;;;4.80;76.80;;;;;;5074508;28;20199;-67
2023/01/27 05:43:32;;;;;;;11.67;5.90;;;4.80;77.00;;;;;;5074422;28;20218;-67
2023/01/27 05:46:16;;;;;;;9.53;5.80;;;4.80;79.10;;;;;;5072910;28;20740;-66
2023/01/27 05:48:43;;;;;;;11.97;5.53;;;4.80;82.60;;;;;;5073035;28;20180;-66
2023/01/27 05:51:10;;;;;;;15.87;6.70;;;4.90;82.60;;;;;;5072738;28;20165;-67
2023/01/27 05:53:36;;;;;;;11.20;5.87;;;4.80;81.30;;;;;;5072421;28;20219;-67
2023/01/27 05:56:02;;;;;;;13.30;6.20;;;4.70;80.00;;;;;;5072715;28;20169;-67
2023/01/27 05:58:29;;;;;;;11.97;6.47;;;4.80;78.60;;;;;;5072082;28;20260;-67
2023/01/27 06:00:54;;;;;;;9.57;6.17;;;4.70;78.10;;;;;;5072685;28;20180;-67
2023/01/27 06:03:20;;;;;;;14.70;6.93;;;4.70;79.10;;;;;;5072890;28;20165;-67
2023/01/27 06:05:57;;;;;;;7.87;4.63;;;4.70;79.30;;;;;;5072780;28;20231;-67
2023/01/27 06:08:24;;;;;;;11.73;5.70;;;4.70;77.90;;;;;;5069657;28;20180;-65
2023/01/27 06:10:50;;;;;;;13.17;7.50;;;4.70;80.20;;;;;;5072842;28;20168;-65
2023/01/27 06:13:17;;;;;;;10.33;6.47;;;4.60;82.60;;;;;;5072152;28;20219;-66
2023/01/27 06:15:44;;;;;;;5.80;4.03;;;4.70;84.00;;;;;;5072650;28;20187;-67
2023/01/27 06:18:10;;;;;;;10.63;6.93;;;4.60;83.00;;;;;;5072339;28;20223;-67
2023/01/27 06:20:36;;;;;;;10.73;5.83;;;4.70;86.60;;;;;;5072546;28;20177;-67
2023/01/27 06:23:02;;;;;;;11.53;6.20;;;4.60;87.80;;;;;;5072438;28;20336;-67
2023/01/27 06:25:28;;;;;;;12.60;7.73;;;4.70;88.10;;;;;;5072331;28;20231;-67
2023/01/27 06:27:57;;;;;;;10.67;6.50;;;4.60;90.20;;;;;;5074238;28;20607;-67
2023/01/27 06:30:23;;;;;;;14.33;6.17;;;4.60;91.70;;;;;;5075842;28;20215;-66
2023/01/27 06:32:49;;;;;;;14.70;6.70;;;4.60;92.90;;;;;;5075725;28;20191;-67
2023/01/27 06:35:15;;;;;;;18.87;7.67;;;4.60;95.10;;;;;;5075719;28;20168;-67
2023/01/27 06:37:40;;;;;;;10.33;7.30;;;4.60;97.10;;;;;;5075305;28;20188;-67
2023/01/27 06:40:06;;;;;;;13.50;7.03;;;4.60;98.90;;;;;;5057435;28;20196;-67
2023/01/27 06:42:32;;;;;;;10.50;6.30;;;4.50;99.90;;;;;;5075988;28;20259;-67
2023/01/27 06:44:57;;;;;;;12.27;8.40;;;4.50;99.90;;;;;;5075782;28;20223;-67
2023/01/27 06:47:23;;;;;;;12.13;7.50;;;4.50;99.90;;;;;;5075479;28;20244;-67
2023/01/27 06:49:49;;;;;;;17.43;8.13;;;4.50;99.90;;;;;;5075551;28;20519;-67
2023/01/27 06:52:14;;;;;;;16.83;8.33;;;4.50;99.90;;;;;;5075564;28;20216;-67
2023/01/27 06:54:40;;;;;;;17.03;8.20;;;4.60;99.90;;;;;;5075342;28;20176;-67
2023/01/27 06:57:08;;;;;;;18.00;8.30;;;4.60;99.90;;;;;;5075077;28;20168;-67
2023/01/27 06:59:34;;;;;;;17.87;8.40;;;4.40;99.90;;;;;;5075210;28;20176;-67
2023/01/27 07:02:00;;;;;;;14.67;8.67;;;4.30;99.90;;;;;;5075213;28;20199;-67
2023/01/27 07:04:25;;;;;;;16.17;9.60;;;4.40;99.90;;;;;;5075268;28;20628;-67
2023/01/27 07:06:51;;;;;;;19.57;9.67;;;4.40;99.90;;;;;;5075094;28;20204;-66
2023/01/27 07:09:16;;;;;;;18.80;9.97;;;4.40;99.90;;;;;;5057247;28;20606;-67
2023/01/27 07:11:43;;;;;;;18.47;8.87;;;4.40;99.90;;;;;;5075002;28;20185;-68
2023/01/27 07:14:08;;;;;;;15.70;8.63;;;4.40;99.90;;;;;;5075377;28;20250;-67
2023/01/27 07:16:34;;;;;;;19.87;10.20;;;4.30;99.90;;;;;;5074775;28;20193;-67
2023/01/27 07:19:00;;;;;;;18.67;10.10;;;4.30;99.90;;;;;;5075036;28;20238;-65
2023/01/27 07:21:25;;;;;;;19.47;9.97;;;4.40;99.90;;;;;;5074746;28;20500;-67
2023/01/27 07:23:51;;;;;;;16.20;9.10;;;4.40;99.90;;;;;;5074915;28;20310;-67
2023/01/27 07:26:16;;;;;;;17.07;10.10;;;4.40;99.90;;;;;;5074300;28;20675;-67
2023/01/27 07:28:42;;;;;;;18.83;10.90;;;4.40;99.90;;;;;;5074961;28;20194;-67
2023/01/27 07:31:07;;;;;;;15.70;9.40;;;4.30;99.90;;;;;;5074728;28;20168;-67
2023/01/27 07:33:33;;;;;;;20.70;10.43;;;4.30;99.90;;;;;;5074379;28;20297;-67
2023/01/27 07:35:59;;;;;;;16.50;9.30;;;4.30;99.90;;;;;;5074768;28;20180;-67
2023/01/27 07:38:24;;;;;;;23.83;11.37;;;4.20;99.90;;;;;;5073796;28;20218;-67
2023/01/27 07:40:50;;;;;;;22.77;11.40;;;4.20;99.90;;;;;;5074201;28;20188;-67
2023/01/27 07:43:16;;;;;;;21.00;11.53;;;4.20;99.90;;;;;;5056554;28;20172;-67
2023/01/27 07:45:41;;;;;;;24.23;11.57;;;4.30;99.90;;;;;;5056454;28;20252;-68
2023/01/27 07:48:08;;;;;;;20.43;11.47;;;4.20;99.90;;;;;;5073935;28;20172;-67
2023/01/27 07:50:35;;;;;;;24.03;11.83;;;4.20;99.90;;;;;;5069722;28;20187;-68
2023/01/27 07:53:02;;;;;;;22.50;12.43;;;4.30;99.90;;;;;;5072372;28;20228;-70
2023/01/27 07:55:29;;;;;;;22.07;11.00;;;4.30;99.90;;;;;;5062414;28;20187;-69
2023/01/27 07:57:55;;;;;;;22.87;12.03;;;4.30;99.90;;;;;;5057494;28;20185;-68
2023/01/27 08:00:21;;;;;;;22.07;11.10;;;4.20;99.90;;;;;;5060854;28;20180;-69
2023/01/27 08:02:54;;;;;;;23.63;11.23;;;4.20;99.90;;;;;;5082150;28;20177;-68
2023/01/27 08:05:21;;;;;;;26.60;11.27;;;4.20;99.90;;;;;;5073723;28;20204;-68
2023/01/27 08:07:47;;;;;;;28.73;12.67;;;4.30;99.90;;;;;;5073378;28;20188;-68
2023/01/27 08:10:12;;;;;;;21.53;12.37;;;4.20;99.90;;;;;;5053464;28;20188;-69
2023/01/27 08:12:38;;;;;;;21.63;12.03;;;4.20;99.90;;;;;;5073661;28;20181;-67
2023/01/27 08:15:04;;;;;;;20.83;11.47;;;4.30;99.90;;;;;;5089293;28;20179;-68
2023/01/27 08:17:30;;;;;;;23.20;11.93;;;4.30;99.90;;;;;;5094163;28;20265;-68
2023/01/27 08:19:55;;;;;;;24.93;11.77;;;4.30;99.90;;;;;;5093428;28;20675;-68
2023/01/27 08:22:21;;;;;;;23.07;11.97;;;4.30;99.90;;;;;;5093256;28;20631;-70
2023/01/27 08:24:47;;;;;;;23.87;11.57;;;4.40;99.90;;;;;;5092161;28;20262;-68
2023/01/27 08:27:13;;;;;;;22.90;11.73;;;4.50;99.90;;;;;;5092219;28;20639;-66
2023/01/27 08:29:39;;;;;;;21.03;11.90;;;4.50;99.90;;;;;;5093954;28;20178;-67
2023/01/27 08:32:04;;;;;;;19.90;11.17;;;4.60;99.90;;;;;;5067500;28;20525;-68
2023/01/27 08:34:30;;;;;;;22.27;11.47;;;4.70;99.90;;;;;;5061171;28;20180;-68
2023/01/27 08:36:56;;;;;;;18.93;10.03;;;4.70;99.90;;;;;;5070417;28;21627;-68
2023/01/27 08:39:22;;;;;;;16.20;8.80;;;4.80;99.90;;;;;;5081654;28;20177;-68
2023/01/27 08:41:47;;;;;;;15.90;8.93;;;4.90;99.90;;;;;;5058727;28;20235;-68
2023/01/27 08:44:13;;;;;;;16.67;9.40;;;4.90;99.90;;;;;;5061205;28;20189;-68
2023/01/27 08:46:39;;;;;;;17.63;8.30;;;4.80;97.00;;;;;;5073156;28;20647;-68
2023/01/27 08:49:04;;;;;;;17.10;9.53;;;4.80;99.40;;;;;;5072506;28;20211;-70
2023/01/27 08:51:30;;;;;;;17.00;10.33;;;4.80;99.90;;;;;;5048789;28;20272;-68
2023/01/27 08:53:55;;;;;;;14.13;9.03;;;5.00;99.90;;;;;;5058124;28;20197;-69
2023/01/27 08:56:22;;;;;;;12.70;7.93;;;4.90;96.10;;;;;;5066300;28;20184;-67
2023/01/27 08:58:47;;;;;;;17.13;8.77;;;4.80;93.50;;;;;;5055651;28;20213;-66
2023/01/27 09:01:14;;;;;;;14.10;8.00;;;4.80;95.90;;;;;;5068826;28;20223;-68
2023/01/27 09:03:40;;;;;;;13.73;9.60;;;4.80;95.00;;;;;;5059083;28;20168;-67
2023/01/27 09:06:08;;;;;;;18.10;9.83;;;4.80;95.70;;;;;;5062361;28;20259;-67
2023/01/27 09:08:34;;;;;;;14.27;9.10;;;4.80;97.30;;;;;;5063017;28;20204;-67
2023/01/27 09:11:06;;;;;;;13.73;8.87;;;4.90;98.30;;;;;;5054676;28;20228;-67
2023/01/27 09:13:31;;;;;;;13.17;9.10;;;5.00;96.80;;;;;;5057860;28;20260;-66
2023/01/27 09:15:59;;;;;;;14.93;8.93;;;5.00;97.30;;;;;;5059195;28;20272;-68
2023/01/27 09:18:25;;;;;;;20.10;9.43;;;5.00;96.90;;;;;;5067296;28;20230;-68
2023/01/27 09:20:50;;;;;;;16.37;10.20;;;4.90;95.90;;;;;;5056386;28;20173;-68
2023/01/27 09:23:16;;;;;;;18.00;10.30;;;5.00;97.80;;;;;;5068790;28;20185;-68
2023/01/27 09:25:41;;;;;;;15.50;10.10;;;5.10;96.00;;;;;;5053805;28;20201;-67
2023/01/27 09:28:15;;;;;;;16.37;8.90;;;5.10;92.30;;;;;;5061693;28;20643;-67
2023/01/27 09:30:44;;;;;;;17.80;10.60;;;5.10;92.10;;;;;;5058836;28;20180;-66
2023/01/27 09:33:11;;;;;;;15.43;9.80;;;5.20;93.10;;;;;;5055826;28;20169;-67
2023/01/27 09:35:57;;;;;;;13.63;9.47;;;5.10;88.60;;;;;;5048441;28;20176;-66
2023/01/27 09:38:24;;;;;;;19.27;10.10;;;5.20;85.70;;;;;;5064551;28;20160;-67
2023/01/27 09:41:21;;;;;;;13.87;9.00;;;5.10;78.50;;;;;;5056669;28;20266;-67
2023/01/27 09:44:38;;;;;;;15.50;9.50;;;5.10;75.60;;;;;;5060024;28;20532;-68
2023/01/27 09:47:30;;;;;;;14.30;9.63;;;5.10;77.60;;;;;;4969956;28;20207;-67
2023/01/27 09:50:02;;;;;;;13.17;9.10;;;5.10;79.80;;;;;;4960533;28;20179;-67
2023/01/27 09:53:00;;;;;;;15.47;8.80;;;5.20;83.00;;;;;;5025143;28;20220;-67
2023/01/27 09:55:31;;;;;;;14.67;9.17;;;5.20;73.10;;;;;;5056958;28;20196;-67
2023/01/27 09:58:06;;;;;;;15.33;8.87;;;5.20;70.60;;;;;;5063410;28;20201;-67
2023/01/27 10:00:56;;;;;;;13.83;8.77;;;5.20;68.40;;;;;;5065435;28;20180;-67
2023/01/27 10:03:25;;;;;;;15.37;9.90;;;5.20;69.30;;;;;;5038025;28;20168;-67
2023/01/27 10:06:09;;;;;;;16.67;10.50;;;5.30;71.30;;;;;;5059281;28;20212;-67
2023/01/27 10:08:34;;;;;;;13.43;8.93;;;5.40;72.60;;;;;;5069700;28;20186;-67
2023/01/27 10:11:11;;;;;;;16.07;9.87;;;5.40;62.30;;;;;;5040788;28;20260;-68
2023/01/27 10:13:55;;;;;;;8.97;6.73;;;5.40;59.30;;;;;;5064360;28;20644;-68
2023/01/27 10:16:37;;;;;;;10.73;7.40;;;5.40;47.60;;;;;;5061973;28;20621;-67
2023/01/27 10:19:11;;;;;;;14.03;8.70;;;5.30;47.60;;;;;;5063522;28;20628;-67
2023/01/27 10:21:37;;;;;;;14.67;8.60;;;5.30;54.50;;;;;;5062000;28;20169;-65
2023/01/27 10:24:26;;;;;;;10.03;7.67;;;5.30;53.90;;;;;;5064047;28;20246;-66
2023/01/27 10:27:18;;;;;;;11.07;7.73;;;5.40;51.00;;;;;;5066550;28;20213;-67
2023/01/27 10:29:50;;;;;;;9.50;7.03;;;5.40;49.20;;;;;;5061700;28;20188;-66
2023/01/27 10:32:27;;;;;;;10.83;7.83;;;5.50;39.90;;;;;;5064297;28;20207;-67
2023/01/27 10:35:07;;;;;;;13.93;8.03;;;5.40;44.10;;;;;;5051692;28;20206;-67
2023/01/27 10:37:57;;;;;;;12.97;7.93;;;5.40;47.00;;;;;;5075543;28;20255;-68
2023/01/27 10:40:57;;;;;;;11.00;7.57;;;5.40;47.80;;;;;;5074649;28;20185;-67
2023/01/27 10:43:28;;;;;;;11.20;7.13;;;5.50;47.60;;;;;;5019971;28;20191;-68
2023/01/27 10:46:27;;;;;;;10.57;7.20;;;5.50;39.50;;;;;;5075190;28;20300;-68
2023/01/27 10:49:29;;;;;;;9.27;7.60;;;5.50;43.50;;;;;;5057231;28;20172;-68
2023/01/27 10:52:09;;;;;;;9.57;5.33;;;5.50;43.10;;;;;;4978405;28;20226;-67
2023/01/27 10:54:40;;;;;;;9.10;6.13;;;5.40;42.20;;;;;;4994183;28;20175;-68
2023/01/27 10:57:10;;;;;;;10.20;7.93;;;5.30;40.70;;;;;;4993816;28;20214;-67
2023/01/27 10:59:36;;;;;;;11.20;7.47;;;5.40;48.10;;;;;;4994263;28;20221;-67
2023/01/27 11:02:23;;;;;;;12.83;7.70;;;5.50;47.70;;;;;;4993848;28;20219;-68
2023/01/27 11:04:57;;;;;;;9.40;7.57;;;5.50;45.80;;;;;;4994269;28;20346;-67
2023/01/27 11:07:24;;;;;;;8.03;5.20;;;5.50;48.30;;;;;;4993726;28;20276;-68
2023/01/27 11:09:59;;;;;;;12.57;8.20;;;5.50;36.00;;;;;;4993953;28;20190;-67
2023/01/27 11:12:33;;;;;;;12.00;7.63;;;5.50;42.10;;;;;;4993568;28;20230;-68
2023/01/27 11:15:09;;;;;;;10.30;7.20;;;5.70;39.00;;;;;;4993916;28;20303;-67
2023/01/27 11:17:45;;;;;;;8.87;6.43;;;5.90;39.60;;;;;;4993412;28;20231;-68
2023/01/27 11:20:22;;;;;;;9.53;6.87;;;6.00;26.90;;;;;;4993591;28;20175;-68
2023/01/27 11:22:54;;;;;;;8.97;6.73;;;6.00;23.70;;;;;;4993427;28;20540;-68
2023/01/27 11:25:28;;;;;;;8.53;6.30;;;6.10;22.80;;;;;;4977278;28;20706;-68
2023/01/27 11:28:22;;;;;;;7.83;6.77;;;6.00;16.80;;;;;;5024553;28;20538;-66
2023/01/27 11:30:53;;;;;;;8.53;6.93;;;6.10;15.10;;;;;;5074892;28;20172;-68
2023/01/27 11:33:26;;;;;;;8.53;6.43;;;6.10;16.10;;;;;;5075055;28;20176;-69
2023/01/27 11:35:52;;;;;;;9.77;6.43;;;6.20;15.30;;;;;;5074224;28;20187;-68
2023/01/27 11:38:21;;;;;;;5.73;5.13;;;6.20;15.00;;;;;;5073292;28;20564;-68
2023/01/27 11:40:50;;;;;;;6.37;5.50;;;6.20;5.40;;;;;;5073929;28;20193;-68
2023/01/27 11:43:18;;;;;;;7.00;6.30;;;6.20;6.30;;;;;;5074482;28;20230;-68
2023/01/27 11:45:45;;;;;;;8.13;5.70;;;6.10;7.90;;;;;;5054160;28;20292;-68
2023/01/27 11:48:15;;;;;;;6.60;5.60;;;6.20;10.90;;;;;;5062968;28;20185;-67
2023/01/27 11:50:42;;;;;;;7.77;5.90;;;6.20;8.00;;;;;;5062171;28;20284;-68
2023/01/27 11:53:24;;;;;;;7.10;6.40;;;6.10;13.30;;;;;;5066156;28;20269;-67
2023/01/27 11:55:59;;;;;;;5.30;4.60;;;6.10;13.40;;;;;;5074570;28;20200;-68
2023/01/27 11:58:51;;;;;;;7.40;5.20;;;6.10;6.70;;;;;;5070999;28;20180;-68
2023/01/27 12:01:22;;;;;;;8.60;5.40;;;6.00;9.30;;;;;;5043415;28;20179;-67
2023/01/27 12:04:06;;;;;;;5.67;5.03;;;6.10;12.30;;;;;;5058690;28;20189;-68
2023/01/27 12:06:38;;;;;;;7.30;5.40;;;6.10;9.60;;;;;;5070556;28;20223;-67
2023/01/27 12:09:03;;;;;;;5.57;5.03;;;6.20;8.70;;;;;;5061103;28;20702;-68
2023/01/27 12:11:30;;;;;;;7.03;5.17;;;6.10;7.50;;;;;;5060880;28;20173;-67
2023/01/27 12:13:59;;;;;;;5.23;4.80;;;6.20;5.20;;;;;;5044913;28;20165;-68
2023/01/27 12:16:43;;;;;;;5.53;4.53;;;6.20;5.70;;;;;;5067913;28;20272;-68
2023/01/27 12:19:28;;;;;;;5.67;4.40;;;6.10;6.60;;;;;;5060451;28;20655;-67
2023/01/27 12:22:00;;;;;;;4.53;4.10;;;5.90;9.80;;;;;;5063407;28;20219;-67
2023/01/27 12:24:39;;;;;;;5.47;4.40;;;5.90;13.00;;;;;;5067998;28;20164;-67
2023/01/27 12:27:06;;;;;;;5.40;4.57;;;5.80;12.80;;;;;;5056849;28;20234;-67
2023/01/27 12:29:40;;;;;;;5.00;4.57;;;5.80;16.10;;;;;;5065626;28;20601;-68
2023/01/27 12:32:16;;;;;;;6.57;5.30;;;5.80;19.00;;;;;;5065376;28;20172;-68
2023/01/27 12:34:47;;;;;;;6.67;5.27;;;5.90;17.60;;;;;;5038572;28;20173;-68
2023/01/27 12:37:25;;;;;;;6.40;5.80;;;6.00;18.70;;;;;;5058151;28;20176;-68
2023/01/27 12:39:59;;;;;;;5.67;4.93;;;6.00;14.90;;;;;;5062897;28;20284;-67
2023/01/27 12:42:48;;;;;;;6.83;4.63;;;5.90;13.70;;;;;;5067822;28;20536;-68
2023/01/27 12:45:37;;;;;;;5.30;4.77;;;6.00;15.30;;;;;;5057715;28;20658;-68
2023/01/27 12:48:08;;;;;;;5.47;4.73;;;5.90;14.90;;;;;;5061114;28;20268;-67
2023/01/27 12:50:36;;;;;;;6.37;5.10;;;5.90;18.30;;;;;;5068603;28;20292;-67
2023/01/27 12:53:19;;;;;;;5.67;5.17;;;5.80;20.80;;;;;;5048432;28;20226;-67
2023/01/27 12:55:56;;;;;;;6.30;5.80;;;5.90;19.90;;;;;;5063840;28;20165;-67
2023/01/27 12:58:33;;;;;;;5.87;5.27;;;5.90;23.90;;;;;;5067178;28;20721;-67
2023/01/27 13:01:04;;;;;;;7.43;5.30;;;5.90;18.50;;;;;;5056260;28;20725;-67
2023/01/27 13:03:35;;;;;;;6.43;5.27;;;5.80;21.90;;;;;;5065731;28;20633;-68
2023/01/27 13:06:01;;;;;;;7.17;5.87;;;5.90;22.60;;;;;;5064188;28;20216;-67
2023/01/27 13:08:31;;;;;;;6.40;5.23;;;5.70;23.40;;;;;;5062743;28;20187;-66
2023/01/27 13:10:59;;;;;;;6.53;5.23;;;5.70;22.80;;;;;;5069533;28;20211;-67
2023/01/27 13:13:28;;;;;;;5.47;4.90;;;5.70;24.70;;;;;;5058922;28;20175;-67
2023/01/27 13:16:16;;;;;;;5.13;4.53;;;5.70;28.20;;;;;;5062094;28;20191;-67
2023/01/27 13:18:52;;;;;;;5.03;4.07;;;5.70;22.70;;;;;;5068629;28;20181;-67
2023/01/27 13:21:22;;;;;;;6.30;4.80;;;5.70;17.10;;;;;;5058225;28;20234;-67
2023/01/27 13:23:50;;;;;;;6.13;4.80;;;5.80;23.50;;;;;;5071432;28;20644;-67
2023/01/27 13:26:24;;;;;;;7.77;5.90;;;5.70;18.90;;;;;;5058184;28;20216;-67
2023/01/27 13:28:56;;;;;;;8.68;7.07;;;5.70;24.80;;;;;;5054874;28;20402;-67
2023/01/27 13:31:48;;;;;;;9.83;6.13;;;5.80;24.60;;;;;;5066569;28;20176;-67
2023/01/27 13:34:37;;;;;;;5.57;5.07;;;5.70;22.80;;;;;;5054785;28;20193;-67
2023/01/27 13:37:22;;;;;;;6.00;4.20;;;5.80;21.20;;;;;;5070049;28;20177;-67